createdAt,value
2017-11-04T00:00:37.763Z,0
2017-11-04T00:01:41.245Z,0
2017-11-04T00:02:43.672Z,0
2017-11-04T00:03:46.106Z,0
2017-11-04T00:04:48.524Z,0
2017-11-04T00:05:50.950Z,0
2017-11-04T00:06:53.389Z,0
2017-11-04T00:07:55.807Z,0
2017-11-04T00:08:58.237Z,0
2017-11-04T00:10:00.669Z,0
2017-11-04T00:11:03.103Z,0
2017-11-04T00:12:05.532Z,0
2017-11-04T00:13:07.964Z,0
2017-11-04T00:14:10.374Z,0
2017-11-04T00:15:12.809Z,0
2017-11-04T00:16:15.229Z,0
2017-11-04T00:17:17.657Z,0
2017-11-04T00:18:20.437Z,0
2017-11-04T00:19:23.210Z,0
2017-11-04T00:20:25.999Z,0
2017-11-04T00:21:28.444Z,0
2017-11-04T00:22:30.854Z,0
2017-11-04T00:23:33.276Z,0
2017-11-04T00:24:35.705Z,0
2017-11-04T00:25:38.127Z,0
2017-11-04T00:26:40.561Z,0
2017-11-04T00:27:42.982Z,0
2017-11-04T00:28:45.407Z,0
2017-11-04T00:29:47.841Z,0
2017-11-04T00:30:50.268Z,0
2017-11-04T00:31:52.699Z,0
2017-11-04T00:32:55.110Z,0
2017-11-04T00:33:57.542Z,0
2017-11-04T00:34:59.962Z,0
2017-11-04T00:36:02.383Z,0
2017-11-04T00:37:04.808Z,0
2017-11-04T00:38:07.244Z,0
2017-11-04T00:39:10.018Z,0
2017-11-04T00:40:12.457Z,0
2017-11-04T00:41:14.882Z,0
2017-11-04T00:42:17.305Z,0
2017-11-04T00:43:19.728Z,0
2017-11-04T00:44:22.157Z,0
2017-11-04T00:45:24.568Z,0
2017-11-04T00:46:26.998Z,0
2017-11-04T00:47:29.415Z,0
2017-11-04T00:48:32.222Z,0
2017-11-04T00:49:34.649Z,0
2017-11-04T00:50:37.436Z,0
2017-11-04T00:51:39.857Z,0
2017-11-04T00:52:42.288Z,0
2017-11-04T00:53:44.702Z,0
2017-11-04T00:54:47.137Z,0
2017-11-04T00:55:49.559Z,0
2017-11-04T00:56:51.984Z,0
2017-11-04T00:57:54.417Z,0
2017-11-04T00:58:56.846Z,0
2017-11-04T00:59:59.272Z,0
2017-11-04T01:01:01.702Z,0
2017-11-04T01:02:04.130Z,0
2017-11-04T01:03:06.551Z,0
2017-11-04T01:04:08.980Z,0
2017-11-04T01:05:11.398Z,0
2017-11-04T01:06:13.841Z,0
2017-11-04T01:07:16.274Z,0
2017-11-04T01:08:18.693Z,0
2017-11-04T01:09:21.477Z,0
2017-11-04T01:10:23.896Z,0
2017-11-04T01:11:26.324Z,0
2017-11-04T01:12:28.753Z,0
2017-11-04T01:13:31.510Z,0
2017-11-04T01:14:33.940Z,0
2017-11-04T01:15:36.368Z,0
2017-11-04T01:16:38.791Z,0
2017-11-04T01:17:41.216Z,0
2017-11-04T01:18:43.636Z,0
2017-11-04T01:19:46.411Z,0
2017-11-04T01:20:48.848Z,0
2017-11-04T01:21:51.286Z,0
2017-11-04T01:22:53.711Z,0
2017-11-04T01:23:56.136Z,0
2017-11-04T01:24:58.566Z,0
2017-11-04T01:26:00.998Z,0
2017-11-04T01:27:03.435Z,0
2017-11-04T01:28:05.853Z,0
2017-11-04T01:29:08.287Z,0
2017-11-04T01:30:10.712Z,0
2017-11-04T01:31:13.140Z,0
2017-11-04T01:32:15.558Z,0
2017-11-04T01:33:17.987Z,0
2017-11-04T01:34:20.419Z,0
2017-11-04T01:35:22.841Z,0
2017-11-04T01:36:25.264Z,0
2017-11-04T01:37:27.694Z,0
2017-11-04T01:38:30.111Z,0
2017-11-04T01:39:32.530Z,0
2017-11-04T01:40:34.955Z,0
2017-11-04T01:41:37.374Z,0
2017-11-04T01:42:39.795Z,0
2017-11-04T01:43:42.225Z,0
2017-11-04T01:44:44.645Z,0
2017-11-04T01:45:47.080Z,0
2017-11-04T01:46:49.504Z,0
2017-11-04T01:47:51.944Z,0
2017-11-04T01:48:54.373Z,0
2017-11-04T01:49:56.797Z,0
2017-11-04T01:50:59.216Z,0
2017-11-04T01:52:01.656Z,0
2017-11-04T01:53:04.071Z,0
2017-11-04T01:54:06.843Z,0
2017-11-04T01:55:09.274Z,0
2017-11-04T01:56:11.698Z,0
2017-11-04T01:57:14.118Z,0
2017-11-04T01:58:16.551Z,0
2017-11-04T01:59:18.969Z,0
2017-11-04T02:00:21.401Z,0
2017-11-04T02:01:23.819Z,0
2017-11-04T02:02:26.246Z,0
2017-11-04T02:03:28.687Z,0
2017-11-04T02:04:31.104Z,0
2017-11-04T02:05:33.899Z,0
2017-11-04T02:06:36.319Z,0
2017-11-04T02:07:38.750Z,0
2017-11-04T02:08:41.175Z,0
2017-11-04T02:09:43.602Z,0
2017-11-04T02:10:46.025Z,0
2017-11-04T02:11:48.476Z,0
2017-11-04T02:12:50.914Z,0
2017-11-04T02:13:53.355Z,0
2017-11-04T02:14:56.159Z,0
2017-11-04T02:15:58.574Z,0
2017-11-04T02:17:01.001Z,0
2017-11-04T02:18:03.453Z,0
2017-11-04T02:19:05.863Z,0
2017-11-04T02:20:08.298Z,0
2017-11-04T02:21:10.728Z,0
2017-11-04T02:22:13.165Z,0
2017-11-04T02:23:15.593Z,0
2017-11-04T02:24:18.019Z,0
2017-11-04T02:25:20.432Z,0
2017-11-04T02:26:22.869Z,0
2017-11-04T02:27:25.301Z,0
2017-11-04T02:28:28.076Z,0
2017-11-04T02:29:30.858Z,0
2017-11-04T02:30:33.283Z,0
2017-11-04T02:31:35.704Z,0
2017-11-04T02:32:38.132Z,0
2017-11-04T02:33:40.547Z,0
2017-11-04T02:34:42.973Z,0
2017-11-04T02:35:45.389Z,0
2017-11-04T02:36:47.811Z,0
2017-11-04T02:37:50.955Z,0
2017-11-04T02:38:53.375Z,0
2017-11-04T02:39:55.807Z,0
2017-11-04T02:40:58.233Z,0
2017-11-04T02:42:00.664Z,0
2017-11-04T02:43:03.458Z,0
2017-11-04T02:44:05.886Z,0
2017-11-04T02:45:08.308Z,0
2017-11-04T02:46:10.738Z,0
2017-11-04T02:47:13.168Z,0
2017-11-04T02:48:15.603Z,0
2017-11-04T02:49:18.033Z,0
2017-11-04T02:50:20.452Z,0
2017-11-04T02:51:23.253Z,0
2017-11-04T02:52:25.682Z,0
2017-11-04T02:53:28.102Z,0
2017-11-04T02:54:30.528Z,0
2017-11-04T02:55:32.949Z,0
2017-11-04T02:56:35.374Z,0
2017-11-04T02:57:37.796Z,0
2017-11-04T02:58:40.228Z,0
2017-11-04T02:59:42.654Z,0
2017-11-04T03:00:45.427Z,0
2017-11-04T03:01:47.917Z,0
2017-11-04T03:02:50.354Z,0
2017-11-04T03:03:52.769Z,0
2017-11-04T03:04:55.194Z,0
2017-11-04T03:05:57.617Z,0
2017-11-04T03:07:00.048Z,0
2017-11-04T03:08:02.470Z,0
2017-11-04T03:09:05.286Z,0
2017-11-04T03:10:07.718Z,0
2017-11-04T03:11:10.149Z,0
2017-11-04T03:12:12.935Z,0
2017-11-04T03:13:15.354Z,0
2017-11-04T03:14:18.130Z,0
2017-11-04T03:15:20.555Z,0
2017-11-04T03:16:22.979Z,0
2017-11-04T03:17:25.413Z,0
2017-11-04T03:18:28.185Z,0
2017-11-04T03:19:30.605Z,0
2017-11-04T03:20:33.029Z,0
2017-11-04T03:21:35.456Z,0
2017-11-04T03:22:37.874Z,0
2017-11-04T03:23:40.299Z,0
2017-11-04T03:24:42.713Z,0
2017-11-04T03:25:45.137Z,0
2017-11-04T03:26:47.565Z,0
2017-11-04T03:27:49.988Z,0
2017-11-04T03:28:52.408Z,0
2017-11-04T03:29:55.174Z,0
2017-11-04T03:30:57.602Z,0
2017-11-04T03:32:00.023Z,0
2017-11-04T03:33:03.174Z,0
2017-11-04T03:34:05.613Z,0
2017-11-04T03:35:08.031Z,0
2017-11-04T03:36:10.795Z,0
2017-11-04T03:37:13.230Z,0
2017-11-04T03:38:15.652Z,0
2017-11-04T03:39:18.080Z,0
2017-11-04T03:40:20.511Z,0
2017-11-04T03:41:22.927Z,0
2017-11-04T03:42:25.351Z,0
2017-11-04T03:43:28.143Z,0
2017-11-04T03:44:30.904Z,0
2017-11-04T03:45:33.332Z,0
2017-11-04T03:46:35.749Z,0
2017-11-04T03:47:38.171Z,0
2017-11-04T03:48:40.598Z,0
2017-11-04T03:49:43.024Z,0
2017-11-04T03:50:45.440Z,0
2017-11-04T03:51:47.885Z,0
2017-11-04T03:52:50.301Z,0
2017-11-04T03:53:52.732Z,0
2017-11-04T03:54:55.156Z,0
2017-11-04T03:55:57.573Z,0
2017-11-04T03:56:59.995Z,0
2017-11-04T03:58:02.437Z,0
2017-11-04T03:59:04.863Z,0
2017-11-04T04:00:07.294Z,0
2017-11-04T04:01:09.715Z,0
2017-11-04T04:02:12.137Z,0
2017-11-04T04:03:14.565Z,0
2017-11-04T04:04:16.991Z,0
2017-11-04T04:05:19.411Z,0
2017-11-04T04:06:21.843Z,0
2017-11-04T04:07:24.258Z,0
2017-11-04T04:08:26.688Z,0
2017-11-04T04:09:29.116Z,0
2017-11-04T04:10:31.539Z,0
2017-11-04T04:11:33.955Z,0
2017-11-04T04:12:36.383Z,0
2017-11-04T04:13:38.795Z,0
2017-11-04T04:14:41.579Z,0
2017-11-04T04:15:44.007Z,0
2017-11-04T04:16:46.444Z,0
2017-11-04T04:17:48.881Z,0
2017-11-04T04:18:51.297Z,0
2017-11-04T04:19:53.723Z,0
2017-11-04T04:20:56.143Z,0
2017-11-04T04:21:58.915Z,0
2017-11-04T04:23:01.340Z,0
2017-11-04T04:24:03.764Z,0
2017-11-04T04:25:06.183Z,0
2017-11-04T04:26:08.604Z,0
2017-11-04T04:27:11.034Z,0
2017-11-04T04:28:13.459Z,0
2017-11-04T04:29:15.870Z,0
2017-11-04T04:30:18.308Z,0
2017-11-04T04:31:20.729Z,0
2017-11-04T04:32:23.143Z,0
2017-11-04T04:33:25.574Z,0
2017-11-04T04:34:28.006Z,0
2017-11-04T04:35:30.427Z,0
2017-11-04T04:36:32.854Z,0
2017-11-04T04:37:35.284Z,0
2017-11-04T04:38:37.693Z,0
2017-11-04T04:39:40.120Z,0
2017-11-04T04:40:42.904Z,0
2017-11-04T04:41:45.328Z,0
2017-11-04T04:42:47.758Z,0
2017-11-04T04:43:50.536Z,0
2017-11-04T04:44:52.959Z,0
2017-11-04T04:45:55.375Z,0
2017-11-04T04:46:57.804Z,0
2017-11-04T04:48:00.220Z,0
2017-11-04T04:49:02.657Z,0
2017-11-04T04:50:05.105Z,0
2017-11-04T04:51:07.515Z,0
2017-11-04T04:52:10.320Z,0
2017-11-04T04:53:12.741Z,0
2017-11-04T04:54:15.162Z,0
2017-11-04T04:55:17.943Z,0
2017-11-04T04:56:20.360Z,0
2017-11-04T04:57:22.786Z,0
2017-11-04T04:58:25.205Z,0
2017-11-04T04:59:27.635Z,0
2017-11-04T05:00:30.059Z,0
2017-11-04T05:01:32.480Z,0
2017-11-04T05:02:34.912Z,0
2017-11-04T05:03:37.698Z,0
2017-11-04T05:04:40.109Z,0
2017-11-04T05:05:42.541Z,0
2017-11-04T05:06:44.958Z,0
2017-11-04T05:07:47.381Z,0
2017-11-04T05:08:49.803Z,0
2017-11-04T05:09:52.228Z,0
2017-11-04T05:10:54.646Z,0
2017-11-04T05:11:57.086Z,0
2017-11-04T05:12:59.504Z,0
2017-11-04T05:14:01.927Z,0
2017-11-04T05:15:04.352Z,0
2017-11-04T05:16:06.762Z,0
2017-11-04T05:17:09.186Z,0
2017-11-04T05:18:11.609Z,0
2017-11-04T05:19:14.037Z,0
2017-11-04T05:20:16.455Z,0
2017-11-04T05:21:18.879Z,0
2017-11-04T05:22:21.646Z,0
2017-11-04T05:23:24.083Z,0
2017-11-04T05:24:26.515Z,0
2017-11-04T05:25:28.944Z,0
2017-11-04T05:26:31.375Z,0
2017-11-04T05:27:33.810Z,0
2017-11-04T05:28:36.231Z,0
2017-11-04T05:29:38.660Z,0
2017-11-04T05:30:41.085Z,0
2017-11-04T05:31:43.520Z,0
2017-11-04T05:32:45.938Z,0
2017-11-04T05:33:48.360Z,0
2017-11-04T05:34:50.787Z,0
2017-11-04T05:35:53.209Z,0
2017-11-04T05:36:55.627Z,0
2017-11-04T05:37:58.063Z,0
2017-11-04T05:39:00.489Z,0
2017-11-04T05:40:02.916Z,0
2017-11-04T05:41:05.336Z,0
2017-11-04T05:42:07.755Z,0
2017-11-04T05:43:10.184Z,0
2017-11-04T05:44:12.984Z,0
2017-11-04T05:45:15.412Z,0
2017-11-04T05:46:17.836Z,0
2017-11-04T05:47:20.244Z,0
2017-11-04T05:48:22.673Z,0
2017-11-04T05:49:25.105Z,0
2017-11-04T05:50:27.521Z,0
2017-11-04T05:51:29.946Z,0
2017-11-04T05:52:32.363Z,0
2017-11-04T05:53:35.134Z,0
2017-11-04T05:54:37.569Z,0
2017-11-04T05:55:39.991Z,0
2017-11-04T05:56:42.402Z,0
2017-11-04T05:57:45.187Z,0
2017-11-04T05:58:47.962Z,0
2017-11-04T05:59:50.395Z,0
2017-11-04T06:00:53.189Z,0
2017-11-04T06:01:55.595Z,0
2017-11-04T06:02:58.026Z,0
2017-11-04T06:04:00.455Z,0
2017-11-04T06:05:02.870Z,0
2017-11-04T06:06:05.669Z,0
2017-11-04T06:07:08.095Z,0
2017-11-04T06:08:10.507Z,0
2017-11-04T06:09:12.939Z,1
2017-11-04T06:10:15.357Z,1
2017-11-04T06:11:17.778Z,1
2017-11-04T06:12:20.201Z,1
2017-11-04T06:13:22.619Z,1
2017-11-04T06:14:25.034Z,1
2017-11-04T06:15:27.465Z,1
2017-11-04T06:16:30.239Z,1
2017-11-04T06:17:32.675Z,1
2017-11-04T06:18:35.088Z,1
2017-11-04T06:19:37.501Z,2
2017-11-04T06:20:39.938Z,2
2017-11-04T06:21:42.354Z,2
2017-11-04T06:22:44.772Z,2
2017-11-04T06:23:47.199Z,2
2017-11-04T06:24:49.618Z,3
2017-11-04T06:25:52.145Z,3
2017-11-04T06:26:54.564Z,3
2017-11-04T06:27:57.004Z,3
2017-11-04T06:28:59.425Z,4
2017-11-04T06:30:01.845Z,4
2017-11-04T06:31:04.274Z,4
2017-11-04T06:32:06.689Z,5
2017-11-04T06:33:09.112Z,5
2017-11-04T06:34:11.532Z,5
2017-11-04T06:35:14.310Z,5
2017-11-04T06:36:16.737Z,6
2017-11-04T06:37:19.165Z,6
2017-11-04T06:38:21.587Z,6
2017-11-04T06:39:24.371Z,7
2017-11-04T06:40:27.151Z,7
2017-11-04T06:41:29.579Z,7
2017-11-04T06:42:32.003Z,8
2017-11-04T06:43:34.429Z,8
2017-11-04T06:44:36.837Z,8
2017-11-04T06:45:39.265Z,9
2017-11-04T06:46:41.684Z,9
2017-11-04T06:47:44.103Z,9
2017-11-04T06:48:46.520Z,9
2017-11-04T06:49:48.949Z,9
2017-11-04T06:50:51.364Z,10
2017-11-04T06:51:53.786Z,10
2017-11-04T06:52:56.223Z,10
2017-11-04T06:53:59.001Z,10
2017-11-04T06:55:01.418Z,10
2017-11-04T06:56:03.858Z,10
2017-11-04T06:57:06.280Z,11
2017-11-04T06:58:08.704Z,11
2017-11-04T06:59:11.119Z,11
2017-11-04T07:00:13.549Z,11
2017-11-04T07:01:16.308Z,12
2017-11-04T07:02:18.736Z,12
2017-11-04T07:03:21.163Z,12
2017-11-04T07:04:23.936Z,12
2017-11-04T07:05:26.364Z,13
2017-11-04T07:06:28.790Z,13
2017-11-04T07:07:31.205Z,14
2017-11-04T07:08:33.635Z,15
2017-11-04T07:09:36.058Z,15
2017-11-04T07:10:38.477Z,16
2017-11-04T07:11:40.900Z,17
2017-11-04T07:12:43.328Z,17
2017-11-04T07:13:45.756Z,18
2017-11-04T07:14:48.185Z,19
2017-11-04T07:15:50.616Z,19
2017-11-04T07:16:53.383Z,20
2017-11-04T07:17:55.815Z,21
2017-11-04T07:18:58.228Z,21
2017-11-04T07:20:00.677Z,21
2017-11-04T07:21:03.443Z,22
2017-11-04T07:22:06.221Z,22
2017-11-04T07:23:08.641Z,22
2017-11-04T07:24:11.421Z,22
2017-11-04T07:25:13.844Z,23
2017-11-04T07:26:16.265Z,24
2017-11-04T07:27:18.692Z,24
2017-11-04T07:28:21.108Z,24
2017-11-04T07:29:23.532Z,24
2017-11-04T07:30:25.950Z,24
2017-11-04T07:31:28.581Z,24
2017-11-04T07:32:30.998Z,24
2017-11-04T07:33:34.135Z,25
2017-11-04T07:34:36.561Z,27
2017-11-04T07:35:53.980Z,27
2017-11-04T07:36:56.342Z,28
2017-11-04T07:37:58.707Z,30
2017-11-04T07:39:01.088Z,32
2017-11-04T07:40:03.466Z,31
2017-11-04T07:41:06.192Z,33
2017-11-04T07:42:08.904Z,33
2017-11-04T07:43:11.278Z,35
2017-11-04T07:44:13.663Z,36
2017-11-04T07:45:16.374Z,36
2017-11-04T07:46:18.744Z,40
2017-11-04T07:47:21.121Z,41
2017-11-04T07:48:23.496Z,43
2017-11-04T07:49:26.236Z,44
2017-11-04T07:50:28.962Z,43
2017-11-04T07:51:31.323Z,43
2017-11-04T07:52:34.054Z,44
2017-11-04T07:53:36.438Z,42
2017-11-04T07:54:38.806Z,45
2017-11-04T07:55:41.183Z,44
2017-11-04T07:56:43.554Z,45
2017-11-04T07:57:45.927Z,47
2017-11-04T07:58:48.303Z,46
2017-11-04T07:59:50.671Z,43
2017-11-04T08:00:53.054Z,42
2017-11-04T08:01:55.425Z,45
2017-11-04T08:02:57.790Z,50
2017-11-04T08:04:00.165Z,52
2017-11-04T08:05:02.534Z,56
2017-11-04T08:06:04.909Z,55
2017-11-04T08:07:07.286Z,51
2017-11-04T08:08:09.645Z,47
2017-11-04T08:09:12.014Z,43
2017-11-04T08:10:14.396Z,39
2017-11-04T08:11:16.757Z,43
2017-11-04T08:12:19.150Z,49
2017-11-04T08:13:21.876Z,56
2017-11-04T08:14:24.236Z,57
2017-11-04T08:15:26.963Z,61
2017-11-04T08:16:29.346Z,55
2017-11-04T08:17:31.749Z,50
2017-11-04T08:18:34.256Z,54
2017-11-04T08:19:37.334Z,50
2017-11-04T08:20:40.345Z,49
2017-11-04T08:21:42.789Z,57
2017-11-04T08:22:45.281Z,50
2017-11-04T08:23:47.907Z,54
2017-11-04T08:24:50.967Z,59
2017-11-04T08:25:53.811Z,56
2017-11-04T08:27:02.812Z,55
2017-11-04T08:28:11.225Z,61
2017-11-04T08:29:14.635Z,62
2017-11-04T08:30:19.505Z,61
2017-11-04T08:31:27.472Z,65
2017-11-04T08:32:36.628Z,66
2017-11-04T08:33:47.061Z,78
2017-11-04T08:34:56.269Z,84
2017-11-04T08:36:07.134Z,76
2017-11-04T08:37:18.108Z,74
2017-11-04T08:38:29.259Z,60
2017-11-04T08:39:37.656Z,70
2017-11-04T08:40:48.490Z,68
2017-11-04T08:41:58.678Z,68
2017-11-04T08:43:09.325Z,64
2017-11-04T08:44:19.526Z,63
2017-11-04T08:45:32.824Z,61
2017-11-04T08:46:43.491Z,57
2017-11-04T08:47:54.295Z,66
2017-11-04T08:49:06.383Z,71
2017-11-04T08:50:16.998Z,67
2017-11-04T08:51:27.141Z,68
2017-11-04T08:52:37.405Z,72
2017-11-04T08:53:47.722Z,72
2017-11-04T08:54:57.681Z,74
2017-11-04T08:56:08.699Z,75
2017-11-04T08:57:19.979Z,83
2017-11-04T08:58:29.286Z,77
2017-11-04T08:59:37.399Z,72
2017-11-04T09:00:47.725Z,76
2017-11-04T09:01:57.948Z,83
2017-11-04T09:03:09.135Z,79
2017-11-04T09:04:18.654Z,79
2017-11-04T09:05:28.458Z,90
2017-11-04T09:06:39.350Z,103
2017-11-04T09:07:50.385Z,96
2017-11-04T09:09:02.881Z,97
2017-11-04T09:10:13.008Z,99
2017-11-04T09:11:24.047Z,87
2017-11-04T09:12:34.605Z,95
2017-11-04T09:13:44.202Z,79
2017-11-04T09:14:55.328Z,77
2017-11-04T09:16:06.745Z,87
2017-11-04T09:17:17.795Z,72
2017-11-04T09:18:27.996Z,78
2017-11-04T09:19:38.898Z,84
2017-11-04T09:20:49.746Z,102
2017-11-04T09:22:00.343Z,105
2017-11-04T09:23:10.636Z,109
2017-11-04T09:24:21.805Z,113
2017-11-04T09:25:32.303Z,118
2017-11-04T09:26:43.939Z,116
2017-11-04T09:27:54.367Z,122
2017-11-04T09:29:05.478Z,128
2017-11-04T09:30:15.193Z,127
2017-11-04T09:31:26.040Z,131
2017-11-04T09:33:05.026Z,135
2017-11-04T09:34:16.751Z,117
2017-11-04T09:35:27.586Z,127
2017-11-04T09:36:37.731Z,127
2017-11-04T09:37:47.126Z,124
2017-11-04T09:38:57.896Z,135
2017-11-04T09:40:07.798Z,136
2017-11-04T09:41:17.485Z,128
2017-11-04T09:42:27.522Z,136
2017-11-04T09:43:38.150Z,150
2017-11-04T09:44:47.343Z,142
2017-11-04T09:45:57.070Z,129
2017-11-04T09:47:08.193Z,134
2017-11-04T09:48:16.684Z,129
2017-11-04T09:49:27.350Z,134
2017-11-04T09:50:37.518Z,138
2017-11-04T09:51:48.415Z,124
2017-11-04T09:52:58.880Z,117
2017-11-04T09:54:08.971Z,129
2017-11-04T09:55:18.446Z,119
2017-11-04T09:56:29.291Z,125
2017-11-04T09:57:39.966Z,123
2017-11-04T09:58:46.142Z,128
2017-11-04T09:59:54.754Z,133
2017-11-04T10:01:04.668Z,132
2017-11-04T10:02:14.651Z,135
2017-11-04T10:03:24.834Z,142
2017-11-04T10:04:36.847Z,156
2017-11-04T10:05:49.510Z,152
2017-11-04T10:07:00.808Z,151
2017-11-04T10:08:12.791Z,144
2017-11-04T10:09:23.058Z,152
2017-11-04T10:10:32.631Z,148
2017-11-04T10:11:42.289Z,157
2017-11-04T10:12:46.743Z,153
2017-11-04T10:13:50.650Z,150
2017-11-04T10:14:57.319Z,149
2017-11-04T10:16:07.466Z,157
2017-11-04T10:17:17.531Z,132
2017-11-04T10:18:28.144Z,138
2017-11-04T10:19:38.814Z,142
2017-11-04T10:20:48.757Z,133
2017-11-04T10:21:59.189Z,122
2017-11-04T10:23:09.488Z,132
2017-11-04T10:24:19.667Z,124
2017-11-04T10:25:31.492Z,115
2017-11-04T10:26:36.275Z,111
2017-11-04T10:27:39.728Z,106
2017-11-04T10:28:44.906Z,102
2017-11-04T10:29:54.189Z,101
2017-11-04T10:31:03.773Z,103
2017-11-04T10:32:13.181Z,98
2017-11-04T10:33:20.829Z,97
2017-11-04T10:34:27.351Z,98
2017-11-04T10:35:34.388Z,105
2017-11-04T10:36:44.194Z,108
2017-11-04T10:37:53.985Z,115
2017-11-04T10:39:04.701Z,119
2017-11-04T10:40:15.730Z,114
2017-11-04T10:41:16.555Z,111
2017-11-04T10:42:27.386Z,106
2017-11-04T10:43:34.848Z,102
2017-11-04T10:44:44.052Z,99
2017-11-04T10:45:52.239Z,96
2017-11-04T10:46:59.087Z,95
2017-11-04T10:48:01.536Z,93
2017-11-04T10:49:05.954Z,93
2017-11-04T10:50:09.503Z,96
2017-11-04T10:51:13.221Z,97
2017-11-04T10:52:16.852Z,100
2017-11-04T10:53:18.902Z,104
2017-11-04T10:54:21.304Z,110
2017-11-04T10:55:23.332Z,115
2017-11-04T10:56:25.709Z,117
2017-11-04T10:57:27.738Z,113
2017-11-04T10:58:29.777Z,116
2017-11-04T10:59:31.805Z,114
2017-11-04T11:00:33.832Z,109
2017-11-04T11:01:35.853Z,104
2017-11-04T11:02:37.898Z,104
2017-11-04T11:03:39.922Z,103
2017-11-04T11:04:41.955Z,103
2017-11-04T11:05:43.987Z,106
2017-11-04T11:06:46.013Z,108
2017-11-04T11:07:48.046Z,113
2017-11-04T11:08:50.447Z,113
2017-11-04T11:09:52.484Z,113
2017-11-04T11:10:54.504Z,111
2017-11-04T11:11:56.530Z,114
2017-11-04T11:12:58.562Z,122
2017-11-04T11:14:00.590Z,125
2017-11-04T11:15:02.971Z,112
2017-11-04T11:16:04.996Z,111
2017-11-04T11:17:07.034Z,114
2017-11-04T11:18:09.054Z,114
2017-11-04T11:19:11.074Z,126
2017-11-04T11:20:13.097Z,128
2017-11-04T11:21:15.121Z,155
2017-11-04T11:22:17.140Z,170
2017-11-04T11:23:19.173Z,175
2017-11-04T11:24:21.193Z,178
2017-11-04T11:25:23.221Z,184
2017-11-04T11:26:25.246Z,186
2017-11-04T11:27:27.276Z,189
2017-11-04T11:28:29.300Z,183
2017-11-04T11:29:31.341Z,182
2017-11-04T11:30:33.367Z,187
2017-11-04T11:31:35.400Z,164
2017-11-04T11:32:37.434Z,148
2017-11-04T11:33:39.476Z,126
2017-11-04T11:34:41.506Z,137
2017-11-04T11:35:43.534Z,161
2017-11-04T11:36:45.558Z,154
2017-11-04T11:37:47.597Z,128
2017-11-04T11:38:49.620Z,122
2017-11-04T11:39:52.004Z,112
2017-11-04T11:40:54.027Z,108
2017-11-04T11:41:56.054Z,108
2017-11-04T11:42:58.081Z,104
2017-11-04T11:44:00.096Z,99
2017-11-04T11:45:02.123Z,97
2017-11-04T11:46:04.165Z,103
2017-11-04T11:47:06.190Z,98
2017-11-04T11:48:08.583Z,92
2017-11-04T11:49:10.612Z,90
2017-11-04T11:50:12.635Z,90
2017-11-04T11:51:14.660Z,87
2017-11-04T11:52:16.681Z,87
2017-11-04T11:53:18.712Z,89
2017-11-04T11:54:20.743Z,88
2017-11-04T11:55:22.765Z,87
2017-11-04T11:56:24.807Z,87
2017-11-04T11:57:26.839Z,88
2017-11-04T11:58:28.868Z,91
2017-11-04T11:59:30.898Z,93
2017-11-04T12:00:32.926Z,98
2017-11-04T12:01:34.964Z,94
2017-11-04T12:02:36.993Z,93
2017-11-04T12:03:39.033Z,93
2017-11-04T12:04:41.050Z,91
2017-11-04T12:05:43.436Z,91
2017-11-04T12:06:45.461Z,87
2017-11-04T12:07:47.493Z,85
2017-11-04T12:08:49.869Z,85
2017-11-04T12:09:51.900Z,86
2017-11-04T12:10:53.920Z,88
2017-11-04T12:11:56.322Z,87
2017-11-04T12:12:58.350Z,83
2017-11-04T12:14:00.384Z,81
2017-11-04T12:15:02.409Z,81
2017-11-04T12:16:04.433Z,82
2017-11-04T12:17:06.478Z,83
2017-11-04T12:18:08.499Z,84
2017-11-04T12:19:10.520Z,84
2017-11-04T12:20:12.548Z,83
2017-11-04T12:21:14.577Z,80
2017-11-04T12:22:16.604Z,76
2017-11-04T12:23:18.640Z,72
2017-11-04T12:24:20.666Z,68
2017-11-04T12:25:22.702Z,65
2017-11-04T12:26:24.723Z,61
2017-11-04T12:27:26.749Z,58
2017-11-04T12:28:28.781Z,54
2017-11-04T12:29:30.823Z,53
2017-11-04T12:30:32.843Z,51
2017-11-04T12:31:34.877Z,49
2017-11-04T12:32:36.901Z,47
2017-11-04T12:33:38.934Z,45
2017-11-04T12:34:40.979Z,43
2017-11-04T12:35:42.993Z,41
2017-11-04T12:36:45.016Z,40
2017-11-04T12:37:47.052Z,39
2017-11-04T12:38:49.078Z,38
2017-11-04T12:39:51.099Z,38
2017-11-04T12:40:53.121Z,35
2017-11-04T12:41:55.148Z,34
2017-11-04T12:42:57.169Z,33
2017-11-04T12:43:59.193Z,32
2017-11-04T12:45:01.230Z,33
2017-11-04T12:46:03.258Z,34
2017-11-04T12:47:05.278Z,35
2017-11-04T12:48:07.305Z,37
2017-11-04T12:49:09.333Z,39
2017-11-04T12:50:11.360Z,40
2017-11-04T12:51:13.389Z,39
2017-11-04T12:52:15.424Z,39
2017-11-04T12:53:17.447Z,39
2017-11-04T12:54:19.473Z,43
2017-11-04T12:55:21.500Z,45
2017-11-04T12:56:23.529Z,45
2017-11-04T12:57:25.558Z,44
2017-11-04T12:58:27.584Z,47
2017-11-04T12:59:29.595Z,51
2017-11-04T13:00:31.625Z,56
2017-11-04T13:01:33.655Z,61
2017-11-04T13:02:35.680Z,64
2017-11-04T13:03:37.712Z,67
2017-11-04T13:04:39.763Z,62
2017-11-04T13:05:41.775Z,60
2017-11-04T13:06:43.789Z,60
2017-11-04T13:07:45.815Z,59
2017-11-04T13:08:48.217Z,58
2017-11-04T13:09:50.234Z,57
2017-11-04T13:10:52.258Z,55
2017-11-04T13:11:54.282Z,53
2017-11-04T13:12:56.309Z,52
2017-11-04T13:13:58.349Z,56
2017-11-04T13:15:00.725Z,51
2017-11-04T13:16:02.745Z,51
2017-11-04T13:17:04.784Z,52
2017-11-04T13:18:06.797Z,54
2017-11-04T13:19:08.823Z,56
2017-11-04T13:20:11.192Z,58
2017-11-04T13:21:13.221Z,57
2017-11-04T13:22:15.248Z,57
2017-11-04T13:23:17.265Z,57
2017-11-04T13:24:19.288Z,58
2017-11-04T13:25:21.324Z,58
2017-11-04T13:26:23.347Z,57
2017-11-04T13:27:25.371Z,56
2017-11-04T13:28:27.397Z,56
2017-11-04T13:29:29.425Z,58
2017-11-04T13:30:31.805Z,57
2017-11-04T13:31:33.838Z,56
2017-11-04T13:32:35.879Z,56
2017-11-04T13:33:38.266Z,56
2017-11-04T13:34:40.280Z,57
2017-11-04T13:35:42.307Z,58
2017-11-04T13:36:44.327Z,58
2017-11-04T13:37:46.369Z,59
2017-11-04T13:38:48.374Z,59
2017-11-04T13:39:50.402Z,61
2017-11-04T13:40:52.434Z,66
2017-11-04T13:41:54.449Z,72
2017-11-04T13:42:56.838Z,73
2017-11-04T13:43:58.874Z,73
2017-11-04T13:45:01.272Z,70
2017-11-04T13:46:03.283Z,68
2017-11-04T13:47:05.303Z,65
2017-11-04T13:48:07.333Z,65
2017-11-04T13:49:09.363Z,64
2017-11-04T13:50:11.749Z,62
2017-11-04T13:51:13.775Z,60
2017-11-04T13:52:15.800Z,58
2017-11-04T13:53:17.828Z,55
2017-11-04T13:54:19.853Z,52
2017-11-04T13:55:21.881Z,50
2017-11-04T13:56:23.902Z,48
2017-11-04T13:57:25.934Z,47
2017-11-04T13:58:27.957Z,54
2017-11-04T13:59:29.992Z,57
2017-11-04T14:00:32.016Z,60
2017-11-04T14:01:34.057Z,61
2017-11-04T14:02:36.096Z,59
2017-11-04T14:03:38.119Z,61
2017-11-04T14:04:40.149Z,61
2017-11-04T14:05:42.186Z,59
2017-11-04T14:06:44.206Z,59
2017-11-04T14:07:46.228Z,63
2017-11-04T14:08:48.616Z,65
2017-11-04T14:09:50.637Z,63
2017-11-04T14:10:52.668Z,59
2017-11-04T14:11:54.692Z,55
2017-11-04T14:12:57.070Z,50
2017-11-04T14:13:59.095Z,45
2017-11-04T14:15:01.110Z,39
2017-11-04T14:16:03.139Z,35
2017-11-04T14:17:05.166Z,33
2017-11-04T14:18:07.190Z,31
2017-11-04T14:19:09.213Z,30
2017-11-04T14:20:11.962Z,29
2017-11-04T14:21:13.985Z,29
2017-11-04T14:22:16.007Z,28
2017-11-04T14:23:18.049Z,27
2017-11-04T14:24:20.081Z,26
2017-11-04T14:25:22.101Z,24
2017-11-04T14:26:24.118Z,23
2017-11-04T14:27:26.144Z,22
2017-11-04T14:28:28.170Z,22
2017-11-04T14:29:30.198Z,23
2017-11-04T14:30:32.597Z,23
2017-11-04T14:31:34.617Z,23
2017-11-04T14:32:36.643Z,22
2017-11-04T14:33:38.679Z,21
2017-11-04T14:34:40.708Z,19
2017-11-04T14:35:42.747Z,18
2017-11-04T14:36:44.751Z,18
2017-11-04T14:37:46.780Z,18
2017-11-04T14:38:48.800Z,16
2017-11-04T14:39:50.821Z,15
2017-11-04T14:40:52.850Z,14
2017-11-04T14:41:54.874Z,13
2017-11-04T14:42:56.904Z,12
2017-11-04T14:43:58.933Z,12
2017-11-04T14:45:00.959Z,12
2017-11-04T14:46:02.994Z,12
2017-11-04T14:47:05.006Z,12
2017-11-04T14:48:07.032Z,12
2017-11-04T14:49:09.067Z,11
2017-11-04T14:50:11.078Z,11
2017-11-04T14:51:13.100Z,11
2017-11-04T14:52:15.121Z,11
2017-11-04T14:53:17.141Z,11
2017-11-04T14:54:19.164Z,11
2017-11-04T14:55:21.191Z,11
2017-11-04T14:56:23.569Z,11
2017-11-04T14:57:25.596Z,11
2017-11-04T14:58:27.613Z,10
2017-11-04T14:59:29.649Z,10
2017-11-04T15:00:31.679Z,9
2017-11-04T15:01:33.703Z,9
2017-11-04T15:02:35.729Z,9
2017-11-04T15:03:37.756Z,8
2017-11-04T15:04:40.163Z,8
2017-11-04T15:05:42.189Z,8
2017-11-04T15:06:44.213Z,7
2017-11-04T15:07:46.246Z,6
2017-11-04T15:08:48.272Z,6
2017-11-04T15:09:50.300Z,6
2017-11-04T15:10:52.331Z,5
2017-11-04T15:11:54.350Z,5
2017-11-04T15:12:56.376Z,5
2017-11-04T15:13:58.437Z,4
2017-11-04T15:15:00.462Z,4